Terminal Aerodrome Forecast
Issued by NWS Sioux Falls, SD

Home | Current Version | Previous Version | Text Only | Print | Product List | Glossary Off
Versions: 1 2 3 4 5 6 7 8 9 10 11 12 13 14

000
FTUS43 KFSD 181739
TAFHON
TAF
KHON 181739Z 1818/1918 VRB03KT P6SM BKN200
     FM190100 15007KT P6SM BKN250
     FM191500 15011KT P6SM BKN200=

USA.gov is the U.S. government's official web portal to all federal, state and local government web resources and services.